Terminal Aerodrome Forecast
Issued by NWS

Home | Current Version | Previous Version | Graphics & Text | Print | Product List | Glossary On
Versions: 1 2 3 4 5 6 7 8 9 10 11 12 13 14
070
FTUS45 KVEF 272320
TAFDAG
TAF
KDAG 272320Z 2800/2824 07008KT P6SM SKC
     FM280300 26010KT P6SM SKC
     FM282000 06012KT P6SM SKC=

USA.gov is the U.S. government's official web portal to all federal, state and local government web resources and services.